sensor_id;sensor_type;location;lat;lon;timestamp;pressure;altitude;pressure_sealevel;temperature;humidity
17785;BME280;9016;53.582;10.062;2023-03-16T00:00:19;101946.75;;;4.82;69.18
17785;BME280;9016;53.582;10.062;2023-03-16T00:02:49;101946.06;;;4.71;69.57
17785;BME280;9016;53.582;10.062;2023-03-16T00:05:17;101945.44;;;4.56;70.02
17785;BME280;9016;53.582;10.062;2023-03-16T00:07:46;101949.91;;;4.52;70.40
17785;BME280;9016;53.582;10.062;2023-03-16T00:10:14;101954.38;;;4.47;70.35
17785;BME280;9016;53.582;10.062;2023-03-16T00:12:42;101950.91;;;4.45;71.18
17785;BME280;9016;53.582;10.062;2023-03-16T00:15:10;101961.50;;;4.42;70.45
17785;BME280;9016;53.582;10.062;2023-03-16T00:17:38;101962.34;;;4.43;71.16
17785;BME280;9016;53.582;10.062;2023-03-16T00:20:09;101959.84;;;4.37;71.34
17785;BME280;9016;53.582;10.062;2023-03-16T00:22:37;101958.22;;;4.27;71.57
17785;BME280;9016;53.582;10.062;2023-03-16T00:25:06;101970.53;;;4.28;71.82
17785;BME280;9016;53.582;10.062;2023-03-16T00:27:34;101966.22;;;4.21;71.43
17785;BME280;9016;53.582;10.062;2023-03-16T00:30:03;101969.81;;;4.17;71.34
17785;BME280;9016;53.582;10.062;2023-03-16T00:32:33;101965.59;;;4.03;71.90
17785;BME280;9016;53.582;10.062;2023-03-16T00:35:03;101961.28;;;3.98;72.20
17785;BME280;9016;53.582;10.062;2023-03-16T00:37:36;101960.41;;;3.97;71.73
17785;BME280;9016;53.582;10.062;2023-03-16T00:40:06;101966.59;;;3.96;71.66
17785;BME280;9016;53.582;10.062;2023-03-16T00:42:35;101970.19;;;3.91;72.42
17785;BME280;9016;53.582;10.062;2023-03-16T00:45:04;101963.94;;;3.96;71.85
17785;BME280;9016;53.582;10.062;2023-03-16T00:47:33;101968.31;;;3.97;72.25
17785;BME280;9016;53.582;10.062;2023-03-16T00:50:01;101969.31;;;3.87;71.88
17785;BME280;9016;53.582;10.062;2023-03-16T00:52:29;101971.13;;;3.85;72.14
17785;BME280;9016;53.582;10.062;2023-03-16T00:54:59;101964.06;;;3.86;72.24
17785;BME280;9016;53.582;10.062;2023-03-16T00:57:29;101966.69;;;3.89;71.62
17785;BME280;9016;53.582;10.062;2023-03-16T00:59:57;101973.78;;;3.82;72.37
17785;BME280;9016;53.582;10.062;2023-03-16T01:02:25;101965.13;;;3.73;73.19
17785;BME280;9016;53.582;10.062;2023-03-16T01:04:53;101969.53;;;3.74;73.28
17785;BME280;9016;53.582;10.062;2023-03-16T01:07:21;101973.94;;;3.72;72.98
17785;BME280;9016;53.582;10.062;2023-03-16T01:09:49;101962.59;;;3.67;72.65
17785;BME280;9016;53.582;10.062;2023-03-16T01:12:19;101959.06;;;3.66;73.87
17785;BME280;9016;53.582;10.062;2023-03-16T01:14:47;101962.59;;;3.67;73.45
17785;BME280;9016;53.582;10.062;2023-03-16T01:17:16;101960.91;;;3.60;73.92
17785;BME280;9016;53.582;10.062;2023-03-16T01:19:45;101955.72;;;3.54;73.49
17785;BME280;9016;53.582;10.062;2023-03-16T01:22:16;101957.44;;;3.56;73.47
17785;BME280;9016;53.582;10.062;2023-03-16T01:24:44;101954.81;;;3.55;73.60
17785;BME280;9016;53.582;10.062;2023-03-16T01:27:13;101947.84;;;3.51;73.90
17785;BME280;9016;53.582;10.062;2023-03-16T01:29:42;101959.31;;;3.45;74.13
17785;BME280;9016;53.582;10.062;2023-03-16T01:32:11;101954.97;;;3.44;74.16
17785;BME280;9016;53.582;10.062;2023-03-16T01:34:39;101954.88;;;3.49;74.46
17785;BME280;9016;53.582;10.062;2023-03-16T01:37:07;101946.97;;;3.49;74.50
17785;BME280;9016;53.582;10.062;2023-03-16T01:39:35;101949.53;;;3.55;74.72
17785;BME280;9016;53.582;10.062;2023-03-16T01:42:04;101946.06;;;3.53;73.94
17785;BME280;9016;53.582;10.062;2023-03-16T01:44:51;101949.72;;;3.43;74.32
17785;BME280;9016;53.582;10.062;2023-03-16T01:47:21;101944.53;;;3.35;75.24
17785;BME280;9016;53.582;10.062;2023-03-16T01:49:52;101949.69;;;3.41;74.59
17785;BME280;9016;53.582;10.062;2023-03-16T01:52:23;101947.13;;;3.38;74.66
17785;BME280;9016;53.582;10.062;2023-03-16T01:54:54;101959.50;;;3.30;75.39
17785;BME280;9016;53.582;10.062;2023-03-16T01:57:26;101954.22;;;3.32;75.36
17785;BME280;9016;53.582;10.062;2023-03-16T02:00:00;101960.38;;;3.31;75.42
17785;BME280;9016;53.582;10.062;2023-03-16T02:02:35;101956.06;;;3.24;75.08
17785;BME280;9016;53.582;10.062;2023-03-16T02:05:10;101949.84;;;3.31;74.90
17785;BME280;9016;53.582;10.062;2023-03-16T02:07:42;101945.44;;;3.31;75.35
17785;BME280;9016;53.582;10.062;2023-03-16T02:10:13;101949.06;;;3.21;75.31
17785;BME280;9016;53.582;10.062;2023-03-16T02:12:42;101945.53;;;3.24;75.10
17785;BME280;9016;53.582;10.062;2023-03-16T02:15:13;101945.59;;;3.18;75.40
17785;BME280;9016;53.582;10.062;2023-03-16T02:17:43;101936.84;;;3.17;75.26
17785;BME280;9016;53.582;10.062;2023-03-16T02:20:19;101938.59;;;3.17;75.74
17785;BME280;9016;53.582;10.062;2023-03-16T02:22:52;101929.00;;;3.08;75.65
17785;BME280;9016;53.582;10.062;2023-03-16T02:25:23;101922.81;;;3.14;75.50
17785;BME280;9016;53.582;10.062;2023-03-16T02:27:56;101926.34;;;3.13;75.57
17785;BME280;9016;53.582;10.062;2023-03-16T02:30:29;101929.84;;;3.15;75.65
17785;BME280;9016;53.582;10.062;2023-03-16T02:32:57;101916.59;;;3.21;74.36
17785;BME280;9016;53.582;10.062;2023-03-16T02:35:25;101927.13;;;3.21;74.72
17785;BME280;9016;53.582;10.062;2023-03-16T02:37:53;101924.53;;;3.16;75.16
17785;BME280;9016;53.582;10.062;2023-03-16T02:40:24;101927.22;;;3.13;74.60
17785;BME280;9016;53.582;10.062;2023-03-16T02:42:58;101925.44;;;3.14;75.03
17785;BME280;9016;53.582;10.062;2023-03-16T02:45:35;101933.34;;;3.12;75.12
17785;BME280;9016;53.582;10.062;2023-03-16T02:48:08;101929.00;;;3.11;74.56
17785;BME280;9016;53.582;10.062;2023-03-16T02:50:48;101921.03;;;3.16;74.20
17785;BME280;9016;53.582;10.062;2023-03-16T02:53:16;101920.13;;;3.18;74.28
17785;BME280;9016;53.582;10.062;2023-03-16T02:55:44;101919.16;;;3.27;74.02
17785;BME280;9016;53.582;10.062;2023-03-16T02:58:13;101925.25;;;3.30;73.16
17785;BME280;9016;53.582;10.062;2023-03-16T03:00:43;101926.16;;;3.29;73.03
17785;BME280;9016;53.582;10.062;2023-03-16T03:03:12;101927.78;;;3.38;72.99
17785;BME280;9016;53.582;10.062;2023-03-16T03:05:40;101929.47;;;3.43;72.54
17785;BME280;9016;53.582;10.062;2023-03-16T03:08:08;101922.47;;;3.42;73.25
17785;BME280;9016;53.582;10.062;2023-03-16T03:10:36;101933.88;;;3.41;72.88
17785;BME280;9016;53.582;10.062;2023-03-16T03:13:04;101930.47;;;3.35;72.92
17785;BME280;9016;53.582;10.062;2023-03-16T03:15:33;101931.34;;;3.37;72.61
17785;BME280;9016;53.582;10.062;2023-03-16T03:18:03;101940.13;;;3.37;72.77
17785;BME280;9016;53.582;10.062;2023-03-16T03:20:31;101938.38;;;3.35;72.77
17785;BME280;9016;53.582;10.062;2023-03-16T03:23:01;101942.84;;;3.30;73.43
17785;BME280;9016;53.582;10.062;2023-03-16T03:25:30;101950.78;;;3.25;73.24
17785;BME280;9016;53.582;10.062;2023-03-16T03:28:01;101937.59;;;3.27;73.78
17785;BME280;9016;53.582;10.062;2023-03-16T03:30:31;101943.78;;;3.24;73.94
17785;BME280;9016;53.582;10.062;2023-03-16T03:32:59;101939.44;;;3.20;73.34
17785;BME280;9016;53.582;10.062;2023-03-16T03:35:29;101930.66;;;3.18;73.34
17785;BME280;9016;53.582;10.062;2023-03-16T03:37:57;101936.78;;;3.22;72.97
17785;BME280;9016;53.582;10.062;2023-03-16T03:40:25;101935.91;;;3.23;73.41
17785;BME280;9016;53.582;10.062;2023-03-16T03:42:53;101933.25;;;3.21;72.61
17785;BME280;9016;53.582;10.062;2023-03-16T03:45:22;101935.19;;;3.07;73.33
17785;BME280;9016;53.582;10.062;2023-03-16T03:47:50;101936.94;;;3.05;73.34
17785;BME280;9016;53.582;10.062;2023-03-16T03:50:18;101943.13;;;3.01;73.74
17785;BME280;9016;53.582;10.062;2023-03-16T03:52:48;101943.97;;;3.06;73.47
17785;BME280;9016;53.582;10.062;2023-03-16T03:55:16;101944.00;;;3.01;73.43
17785;BME280;9016;53.582;10.062;2023-03-16T03:57:45;101945.84;;;2.93;73.81
17785;BME280;9016;53.582;10.062;2023-03-16T04:00:13;101946.69;;;2.95;73.64
17785;BME280;9016;53.582;10.062;2023-03-16T04:02:42;101944.97;;;2.91;73.87
17785;BME280;9016;53.582;10.062;2023-03-16T04:05:10;101937.97;;;2.90;73.54
17785;BME280;9016;53.582;10.062;2023-03-16T04:07:38;101937.03;;;2.97;73.14
17785;BME280;9016;53.582;10.062;2023-03-16T04:10:09;101936.91;;;3.08;72.60
17785;BME280;9016;53.582;10.062;2023-03-16T04:12:37;101943.13;;;3.04;72.40
17785;BME280;9016;53.582;10.062;2023-03-16T04:15:06;101936.19;;;2.94;72.86
17785;BME280;9016;53.582;10.062;2023-03-16T04:17:34;101936.25;;;2.89;73.58
17785;BME280;9016;53.582;10.062;2023-03-16T04:20:02;101929.19;;;2.91;72.96
17785;BME280;9016;53.582;10.062;2023-03-16T04:22:36;101931.81;;;2.94;72.55
17785;BME280;9016;53.582;10.062;2023-03-16T04:25:04;101932.75;;;2.86;73.25
17785;BME280;9016;53.582;10.062;2023-03-16T04:27:33;101931.00;;;2.86;73.14
17785;BME280;9016;53.582;10.062;2023-03-16T04:30:03;101924.00;;;2.85;73.35
17785;BME280;9016;53.582;10.062;2023-03-16T04:32:31;101924.09;;;2.76;73.24
17785;BME280;9016;53.582;10.062;2023-03-16T04:34:59;101936.41;;;2.71;73.43
17785;BME280;9016;53.582;10.062;2023-03-16T04:37:27;101934.63;;;2.76;73.47
17785;BME280;9016;53.582;10.062;2023-03-16T04:39:55;101928.50;;;2.74;73.25
17785;BME280;9016;53.582;10.062;2023-03-16T04:42:23;101927.56;;;2.80;72.68
17785;BME280;9016;53.582;10.062;2023-03-16T04:44:52;101923.09;;;2.86;72.16
17785;BME280;9016;53.582;10.062;2023-03-16T04:47:21;101934.47;;;2.93;72.57
17785;BME280;9016;53.582;10.062;2023-03-16T04:49:49;101937.13;;;2.88;71.99
17785;BME280;9016;53.582;10.062;2023-03-16T04:52:17;101930.13;;;2.87;71.97
17785;BME280;9016;53.582;10.062;2023-03-16T04:54:46;101934.56;;;2.84;72.23
17785;BME280;9016;53.582;10.062;2023-03-16T04:57:14;101923.16;;;2.83;72.06
17785;BME280;9016;53.582;10.062;2023-03-16T04:59:44;101925.63;;;2.97;71.42
17785;BME280;9016;53.582;10.062;2023-03-16T05:02:14;101931.72;;;3.02;71.77
17785;BME280;9016;53.582;10.062;2023-03-16T05:04:42;101921.03;;;3.16;71.06
17785;BME280;9016;53.582;10.062;2023-03-16T05:07:10;101921.88;;;3.21;70.76
17785;BME280;9016;53.582;10.062;2023-03-16T05:09:38;101918.50;;;3.10;69.48
17785;BME280;9016;53.582;10.062;2023-03-16T05:12:07;101915.91;;;3.03;70.49
17785;BME280;9016;53.582;10.062;2023-03-16T05:14:36;101918.50;;;3.07;70.42
17785;BME280;9016;53.582;10.062;2023-03-16T05:17:05;101914.03;;;3.15;69.54
17785;BME280;9016;53.582;10.062;2023-03-16T05:19:34;101910.53;;;3.14;69.27
17785;BME280;9016;53.582;10.062;2023-03-16T05:22:02;101912.22;;;3.18;69.64
17785;BME280;9016;53.582;10.062;2023-03-16T05:24:30;101915.09;;;2.98;70.06
17785;BME280;9016;53.582;10.062;2023-03-16T05:26:58;101907.94;;;3.11;69.36
17785;BME280;9016;53.582;10.062;2023-03-16T05:29:29;101917.44;;;3.21;69.22
17785;BME280;9016;53.582;10.062;2023-03-16T05:31:57;101908.63;;;3.25;69.11
17785;BME280;9016;53.582;10.062;2023-03-16T05:34:26;101914.81;;;3.21;68.92
17785;BME280;9016;53.582;10.062;2023-03-16T05:36:55;101920.09;;;3.20;69.22
17785;BME280;9016;53.582;10.062;2023-03-16T05:39:23;101925.34;;;3.21;67.98
17785;BME280;9016;53.582;10.062;2023-03-16T05:41:51;101930.53;;;3.29;68.45
17785;BME280;9016;53.582;10.062;2023-03-16T05:44:20;101930.50;;;3.30;67.93
17785;BME280;9016;53.582;10.062;2023-03-16T05:46:49;101933.16;;;3.30;67.59
17785;BME280;9016;53.582;10.062;2023-03-16T05:49:17;101944.56;;;3.31;68.18
17785;BME280;9016;53.582;10.062;2023-03-16T05:51:45;101934.84;;;3.37;68.15
17785;BME280;9016;53.582;10.062;2023-03-16T05:54:14;101940.97;;;3.38;66.80
17785;BME280;9016;53.582;10.062;2023-03-16T05:56:42;101939.03;;;3.53;67.44
17785;BME280;9016;53.582;10.062;2023-03-16T05:59:10;101946.00;;;3.57;67.55
17785;BME280;9016;53.582;10.062;2023-03-16T06:01:38;101941.56;;;3.61;67.32
17785;BME280;9016;53.582;10.062;2023-03-16T06:04:06;101940.66;;;3.62;66.67
17785;BME280;9016;53.582;10.062;2023-03-16T06:06:35;101937.88;;;3.75;66.06
17785;BME280;9016;53.582;10.062;2023-03-16T06:09:03;101943.19;;;3.72;65.76
17785;BME280;9016;53.582;10.062;2023-03-16T06:11:34;101942.25;;;3.78;64.92
17785;BME280;9016;53.582;10.062;2023-03-16T06:14:02;101937.78;;;3.81;65.17
17785;BME280;9016;53.582;10.062;2023-03-16T06:16:31;101940.31;;;3.87;65.03
17785;BME280;9016;53.582;10.062;2023-03-16T06:18:59;101936.63;;;4.00;64.24
17785;BME280;9016;53.582;10.062;2023-03-16T06:21:28;101938.41;;;3.98;64.35
17785;BME280;9016;53.582;10.062;2023-03-16T06:23:56;101934.06;;;3.96;64.55
17785;BME280;9016;53.582;10.062;2023-03-16T06:26:24;101930.41;;;4.08;64.04
17785;BME280;9016;53.582;10.062;2023-03-16T06:28:54;101936.56;;;4.05;63.66
17785;BME280;9016;53.582;10.062;2023-03-16T06:31:22;101939.00;;;4.20;63.02
17785;BME280;9016;53.582;10.062;2023-03-16T06:33:50;101953.00;;;4.24;63.05
17785;BME280;9016;53.582;10.062;2023-03-16T06:36:19;101946.69;;;4.32;62.67
17785;BME280;9016;53.582;10.062;2023-03-16T06:38:47;101952.81;;;4.34;62.23
17785;BME280;9016;53.582;10.062;2023-03-16T06:41:15;101960.66;;;4.40;62.49
17785;BME280;9016;53.582;10.062;2023-03-16T06:43:43;101958.75;;;4.50;61.46
17785;BME280;9016;53.582;10.062;2023-03-16T06:46:13;101957.78;;;4.54;61.96
17785;BME280;9016;53.582;10.062;2023-03-16T06:48:41;101956.81;;;4.59;61.85
17785;BME280;9016;53.582;10.062;2023-03-16T06:51:09;101963.03;;;4.57;61.58
17785;BME280;9016;53.582;10.062;2023-03-16T06:53:38;101960.13;;;4.70;61.78
17785;BME280;9016;53.582;10.062;2023-03-16T06:56:06;101959.19;;;4.74;61.14
17785;BME280;9016;53.582;10.062;2023-03-16T06:58:35;101952.06;;;4.81;60.91
17785;BME280;9016;53.582;10.062;2023-03-16T07:01:03;101953.78;;;4.82;60.84
17785;BME280;9016;53.582;10.062;2023-03-16T07:03:34;101958.41;;;4.69;60.81
17785;BME280;9016;53.582;10.062;2023-03-16T07:06:02;101967.09;;;4.77;60.74
17785;BME280;9016;53.582;10.062;2023-03-16T07:08:30;101966.84;;;4.89;60.80
17785;BME280;9016;53.582;10.062;2023-03-16T07:10:57;101964.16;;;4.94;60.15
17785;BME280;9016;53.582;10.062;2023-03-16T07:13:26;101962.38;;;4.96;60.78
17785;BME280;9016;53.582;10.062;2023-03-16T07:15:54;101961.41;;;4.98;60.30
17785;BME280;9016;53.582;10.062;2023-03-16T07:18:22;101961.31;;;5.04;60.60
17785;BME280;9016;53.582;10.062;2023-03-16T07:20:53;101966.44;;;5.14;60.35
17785;BME280;9016;53.582;10.062;2023-03-16T07:23:21;101963.56;;;5.24;60.14
17785;BME280;9016;53.582;10.062;2023-03-16T07:25:50;101966.16;;;5.29;59.53
17785;BME280;9016;53.582;10.062;2023-03-16T07:28:18;101966.59;;;5.50;58.93
17785;BME280;9016;53.582;10.062;2023-03-16T07:30:46;101967.25;;;5.61;58.52
17785;BME280;9016;53.582;10.062;2023-03-16T07:33:29;101967.69;;;5.83;57.81
17785;BME280;9016;53.582;10.062;2023-03-16T07:35:59;101973.00;;;5.81;57.84
17785;BME280;9016;53.582;10.062;2023-03-16T07:38:30;101962.19;;;5.93;57.25
17785;BME280;9016;53.582;10.062;2023-03-16T07:40:59;101969.44;;;5.84;56.92
17785;BME280;9016;53.582;10.062;2023-03-16T07:43:27;101974.41;;;5.99;57.42
17785;BME280;9016;53.582;10.062;2023-03-16T07:45:55;101974.59;;;5.91;56.86
17785;BME280;9016;53.582;10.062;2023-03-16T07:48:24;101972.41;;;6.10;56.73
17785;BME280;9016;53.582;10.062;2023-03-16T07:50:52;101968.69;;;6.19;56.03
17785;BME280;9016;53.582;10.062;2023-03-16T07:53:22;101970.25;;;6.26;55.26
17785;BME280;9016;53.582;10.062;2023-03-16T07:55:49;101972.81;;;6.30;55.65
17785;BME280;9016;53.582;10.062;2023-03-16T07:58:17;101969.03;;;6.42;55.55
17785;BME280;9016;53.582;10.062;2023-03-16T08:00:45;101971.69;;;6.42;55.52
17785;BME280;9016;53.582;10.062;2023-03-16T08:03:13;101971.19;;;6.25;55.13
17785;BME280;9016;53.582;10.062;2023-03-16T08:05:41;101973.94;;;6.20;55.70
17785;BME280;9016;53.582;10.062;2023-03-16T08:08:09;101969.47;;;6.22;55.51
17785;BME280;9016;53.582;10.062;2023-03-16T08:10:38;101981.53;;;6.35;55.94
17785;BME280;9016;53.582;10.062;2023-03-16T08:13:07;101973.94;;;6.58;54.96
17785;BME280;9016;53.582;10.062;2023-03-16T08:15:35;101976.16;;;6.75;55.01
17785;BME280;9016;53.582;10.062;2023-03-16T08:18:03;101978.59;;;6.82;54.67
17785;BME280;9016;53.582;10.062;2023-03-16T08:20:33;101969.47;;;6.94;54.06
17785;BME280;9016;53.582;10.062;2023-03-16T08:23:00;101968.72;;;6.89;53.50
17785;BME280;9016;53.582;10.062;2023-03-16T08:25:31;101970.44;;;6.90;54.34
17785;BME280;9016;53.582;10.062;2023-03-16T08:28:01;101973.53;;;7.07;53.46
17785;BME280;9016;53.582;10.062;2023-03-16T08:30:30;101968.91;;;7.47;52.05
17785;BME280;9016;53.582;10.062;2023-03-16T08:32:58;101971.56;;;8.07;50.64
17785;BME280;9016;53.582;10.062;2023-03-16T08:35:28;101954.13;;;8.81;49.01
17785;BME280;9016;53.582;10.062;2023-03-16T08:37:56;101955.25;;;9.50;47.66
17785;BME280;9016;53.582;10.062;2023-03-16T08:40:25;101953.66;;;10.15;45.69
17785;BME280;9016;53.582;10.062;2023-03-16T08:42:55;101954.25;;;10.86;44.45
17785;BME280;9016;53.582;10.062;2023-03-16T08:45:25;101949.25;;;11.59;42.30
17785;BME280;9016;53.582;10.062;2023-03-16T08:47:53;101956.69;;;12.29;41.41
17785;BME280;9016;53.582;10.062;2023-03-16T08:50:22;101938.16;;;12.78;39.57
17785;BME280;9016;53.582;10.062;2023-03-16T08:52:50;101945.06;;;13.35;38.35
17785;BME280;9016;53.582;10.062;2023-03-16T08:55:19;101939.91;;;13.48;37.80
17785;BME280;9016;53.582;10.062;2023-03-16T08:57:47;101937.50;;;13.91;37.34
17785;BME280;9016;53.582;10.062;2023-03-16T09:00:15;101933.38;;;14.17;36.91
17785;BME280;9016;53.582;10.062;2023-03-16T09:02:47;101927.06;;;14.03;36.30
17785;BME280;9016;53.582;10.062;2023-03-16T09:05:15;101935.50;;;13.95;37.08
17785;BME280;9016;53.582;10.062;2023-03-16T09:07:44;101929.41;;;14.55;36.70
17785;BME280;9016;53.582;10.062;2023-03-16T09:10:14;101927.44;;;14.43;35.38
17785;BME280;9016;53.582;10.062;2023-03-16T09:12:46;101925.63;;;14.28;36.45
17785;BME280;9016;53.582;10.062;2023-03-16T09:15:14;101919.56;;;14.09;36.50
17785;BME280;9016;53.582;10.062;2023-03-16T09:17:42;101926.56;;;14.43;36.06
17785;BME280;9016;53.582;10.062;2023-03-16T09:20:14;101923.78;;;14.60;35.97
17785;BME280;9016;53.582;10.062;2023-03-16T09:22:51;101915.97;;;14.55;35.81
17785;BME280;9016;53.582;10.062;2023-03-16T09:25:20;101909.38;;;14.31;35.49
17785;BME280;9016;53.582;10.062;2023-03-16T09:27:51;101915.72;;;13.49;36.43
17785;BME280;9016;53.582;10.062;2023-03-16T09:30:19;101916.41;;;13.20;37.37
17785;BME280;9016;53.582;10.062;2023-03-16T09:32:47;101906.56;;;13.04;37.80
17785;BME280;9016;53.582;10.062;2023-03-16T09:35:17;101914.16;;;12.77;37.91
17785;BME280;9016;53.582;10.062;2023-03-16T09:37:45;101912.84;;;12.33;38.53
17785;BME280;9016;53.582;10.062;2023-03-16T09:40:31;101913.22;;;12.07;39.64
17785;BME280;9016;53.582;10.062;2023-03-16T09:43:23;101909.91;;;11.83;39.86
17785;BME280;9016;53.582;10.062;2023-03-16T09:46:03;101910.59;;;11.68;40.35
17785;BME280;9016;53.582;10.062;2023-03-16T09:48:35;101901.69;;;11.49;40.16
17785;BME280;9016;53.582;10.062;2023-03-16T09:51:09;101902.47;;;11.32;40.71
17785;BME280;9016;53.582;10.062;2023-03-16T09:53:53;101909.38;;;11.36;40.69
17785;BME280;9016;53.582;10.062;2023-03-16T09:56:29;101896.91;;;11.37;40.82
17785;BME280;9016;53.582;10.062;2023-03-16T09:58:59;101894.69;;;11.46;40.71
17785;BME280;9016;53.582;10.062;2023-03-16T10:04:13;101896.66;;;11.23;40.50
17785;BME280;9016;53.582;10.062;2023-03-16T10:06:54;101895.84;;;11.21;40.57
17785;BME280;9016;53.582;10.062;2023-03-16T10:09:30;101894.31;;;11.35;40.52
17785;BME280;9016;53.582;10.062;2023-03-16T10:12:03;101891.91;;;11.29;40.80
17785;BME280;9016;53.582;10.062;2023-03-16T10:14:40;101881.50;;;11.62;39.56
17785;BME280;9016;53.582;10.062;2023-03-16T10:17:14;101885.50;;;11.72;39.74
17785;BME280;9016;53.582;10.062;2023-03-16T10:19:47;101877.81;;;11.64;39.43
17785;BME280;9016;53.582;10.062;2023-03-16T10:22:22;101879.47;;;11.48;37.91
17785;BME280;9016;53.582;10.062;2023-03-16T10:25:00;101882.28;;;11.64;37.78
17785;BME280;9016;53.582;10.062;2023-03-16T10:27:32;101878.59;;;11.48;37.55
17785;BME280;9016;53.582;10.062;2023-03-16T10:30:12;101875.22;;;11.63;36.68
17785;BME280;9016;53.582;10.062;2023-03-16T10:32:47;101881.69;;;11.77;37.27
17785;BME280;9016;53.582;10.062;2023-03-16T10:35:39;101870.59;;;11.48;35.59
17785;BME280;9016;53.582;10.062;2023-03-16T10:38:26;101867.78;;;11.71;35.75
17785;BME280;9016;53.582;10.062;2023-03-16T10:40:56;101872.22;;;11.89;34.95
17785;BME280;9016;53.582;10.062;2023-03-16T10:43:25;101863.06;;;11.76;35.19
17785;BME280;9016;53.582;10.062;2023-03-16T10:45:57;101860.31;;;11.77;33.97
17785;BME280;9016;53.582;10.062;2023-03-16T10:48:30;101856.78;;;11.77;34.24
17785;BME280;9016;53.582;10.062;2023-03-16T10:51:05;101860.97;;;11.82;34.10
17785;BME280;9016;53.582;10.062;2023-03-16T10:53:38;101853.88;;;11.63;33.28
17785;BME280;9016;53.582;10.062;2023-03-16T10:56:09;101848.91;;;11.74;33.20
17785;BME280;9016;53.582;10.062;2023-03-16T10:58:45;101848.16;;;11.52;32.52
17785;BME280;9016;53.582;10.062;2023-03-16T11:01:22;101844.91;;;11.64;32.37
17785;BME280;9016;53.582;10.062;2023-03-16T11:03:53;101846.16;;;11.75;31.30
17785;BME280;9016;53.582;10.062;2023-03-16T11:06:24;101837.16;;;11.78;31.08
17785;BME280;9016;53.582;10.062;2023-03-16T11:09:04;101844.22;;;11.79;32.08
17785;BME280;9016;53.582;10.062;2023-03-16T11:11:36;101841.44;;;11.99;31.24
17785;BME280;9016;53.582;10.062;2023-03-16T11:14:11;101832.06;;;12.09;30.52
17785;BME280;9016;53.582;10.062;2023-03-16T11:16:43;101830.69;;;12.36;31.24
17785;BME280;9016;53.582;10.062;2023-03-16T11:19:16;101810.63;;;12.79;30.74
17785;BME280;9016;53.582;10.062;2023-03-16T11:21:49;101801.81;;;12.94;31.17
17785;BME280;9016;53.582;10.062;2023-03-16T11:24:26;101809.47;;;12.67;30.57
17785;BME280;9016;53.582;10.062;2023-03-16T11:27:01;101806.56;;;12.55;30.18
17785;BME280;9016;53.582;10.062;2023-03-16T11:29:40;101804.00;;;12.18;29.46
17785;BME280;9016;53.582;10.062;2023-03-16T11:32:14;101801.47;;;11.98;29.11
17785;BME280;9016;53.582;10.062;2023-03-16T11:34:46;101802.09;;;11.67;29.95
17785;BME280;9016;53.582;10.062;2023-03-16T11:37:23;101801.81;;;11.73;28.79
17785;BME280;9016;53.582;10.062;2023-03-16T11:40:02;101805.00;;;11.98;28.86
17785;BME280;9016;53.582;10.062;2023-03-16T11:42:45;101800.84;;;11.74;28.17
17785;BME280;9016;53.582;10.062;2023-03-16T11:45:28;101794.78;;;11.89;27.74
17785;BME280;9016;53.582;10.062;2023-03-16T11:48:23;101779.72;;;12.05;27.41
17785;BME280;9016;53.582;10.062;2023-03-16T11:51:03;101789.91;;;11.97;27.35
17785;BME280;9016;53.582;10.062;2023-03-16T11:53:48;101787.75;;;11.86;27.55
17785;BME280;9016;53.582;10.062;2023-03-16T11:56:27;101767.00;;;11.74;27.14
17785;BME280;9016;53.582;10.062;2023-03-16T11:59:19;101768.81;;;11.74;27.93
17785;BME280;9016;53.582;10.062;2023-03-16T12:02:00;101768.88;;;11.54;28.42
17785;BME280;9016;53.582;10.062;2023-03-16T12:04:44;101770.84;;;11.50;27.65
17785;BME280;9016;53.582;10.062;2023-03-16T12:07:33;101769.38;;;11.62;28.34
17785;BME280;9016;53.582;10.062;2023-03-16T12:10:11;101759.28;;;11.68;28.53
17785;BME280;9016;53.582;10.062;2023-03-16T12:12:59;101756.72;;;11.67;27.84
17785;BME280;9016;53.582;10.062;2023-03-16T12:15:34;101744.56;;;11.78;27.49
17785;BME280;9016;53.582;10.062;2023-03-16T12:18:14;101740.69;;;11.67;26.76
17785;BME280;9016;53.582;10.062;2023-03-16T12:20:49;101741.94;;;11.77;27.98
17785;BME280;9016;53.582;10.062;2023-03-16T12:23:20;101744.94;;;11.88;27.50
17785;BME280;9016;53.582;10.062;2023-03-16T12:26:01;101733.47;;;11.86;26.89
17785;BME280;9016;53.582;10.062;2023-03-16T12:28:31;101734.00;;;12.11;27.40
17785;BME280;9016;53.582;10.062;2023-03-16T12:31:09;101718.72;;;12.47;26.41
17785;BME280;9016;53.582;10.062;2023-03-16T12:33:47;101718.09;;;12.59;27.24
17785;BME280;9016;53.582;10.062;2023-03-16T12:36:49;101719.03;;;12.58;26.83
17785;BME280;9016;53.582;10.062;2023-03-16T12:39:24;101709.38;;;12.56;26.81
17785;BME280;9016;53.582;10.062;2023-03-16T12:42:04;101717.84;;;12.64;27.48
17785;BME280;9016;53.582;10.062;2023-03-16T12:44:42;101706.47;;;12.43;27.02
17785;BME280;9016;53.582;10.062;2023-03-16T12:47:18;101700.09;;;12.46;26.01
17785;BME280;9016;53.582;10.062;2023-03-16T12:49:49;101688.53;;;12.45;26.01
17785;BME280;9016;53.582;10.062;2023-03-16T12:52:18;101688.00;;;12.71;26.72
17785;BME280;9016;53.582;10.062;2023-03-16T12:54:51;101673.84;;;12.69;26.11
17785;BME280;9016;53.582;10.062;2023-03-16T12:57:23;101690.06;;;12.66;26.58
17785;BME280;9016;53.582;10.062;2023-03-16T12:59:58;101675.66;;;12.36;25.98
17785;BME280;9016;53.582;10.062;2023-03-16T13:02:29;101678.34;;;12.36;26.54
17785;BME280;9016;53.582;10.062;2023-03-16T13:04:59;101672.16;;;12.36;26.55
17785;BME280;9016;53.582;10.062;2023-03-16T13:07:29;101667.63;;;12.53;26.87
17785;BME280;9016;53.582;10.062;2023-03-16T13:10:02;101667.94;;;12.47;27.20
17785;BME280;9016;53.582;10.062;2023-03-16T13:12:36;101659.97;;;12.63;27.36
17785;BME280;9016;53.582;10.062;2023-03-16T13:15:28;101652.59;;;12.51;27.08
17785;BME280;9016;53.582;10.062;2023-03-16T13:18:20;101650.97;;;12.64;27.54
17785;BME280;9016;53.582;10.062;2023-03-16T13:20:55;101655.53;;;12.46;27.25